sensor_id;sensor_type;location;lat;lon;timestamp;P1;durP1;ratioP1;P2;durP2;ratioP2
69087;SDS011;56190;43.562;5.036;2023-04-24T00:01:23;2.13;;;1.30;;
69087;SDS011;56190;43.562;5.036;2023-04-24T00:03:48;1.90;;;1.60;;
69087;SDS011;56190;43.562;5.036;2023-04-24T00:06:13;2.53;;;1.45;;
69087;SDS011;56190;43.562;5.036;2023-04-24T00:08:39;3.63;;;1.88;;
69087;SDS011;56190;43.562;5.036;2023-04-24T00:11:04;3.60;;;2.05;;
69087;SDS011;56190;43.562;5.036;2023-04-24T00:13:30;2.28;;;1.88;;
69087;SDS011;56190;43.562;5.036;2023-04-24T00:15:55;4.07;;;2.22;;
69087;SDS011;56190;43.562;5.036;2023-04-24T00:18:20;2.97;;;2.10;;
69087;SDS011;56190;43.562;5.036;2023-04-24T00:20:46;4.35;;;2.10;;
69087;SDS011;56190;43.562;5.036;2023-04-24T00:23:11;2.67;;;2.10;;
69087;SDS011;56190;43.562;5.036;2023-04-24T00:25:36;4.40;;;2.50;;
69087;SDS011;56190;43.562;5.036;2023-04-24T00:28:02;2.65;;;1.80;;
69087;SDS011;56190;43.562;5.036;2023-04-24T00:30:27;3.55;;;2.25;;
69087;SDS011;56190;43.562;5.036;2023-04-24T00:32:54;4.80;;;2.47;;
69087;SDS011;56190;43.562;5.036;2023-04-24T00:35:20;3.45;;;2.25;;
69087;SDS011;56190;43.562;5.036;2023-04-24T00:37:45;4.68;;;2.25;;
69087;SDS011;56190;43.562;5.036;2023-04-24T00:40:11;3.67;;;2.38;;
69087;SDS011;56190;43.562;5.036;2023-04-24T00:42:37;4.70;;;2.22;;
69087;SDS011;56190;43.562;5.036;2023-04-24T00:45:04;3.10;;;2.00;;
69087;SDS011;56190;43.562;5.036;2023-04-24T00:47:30;4.10;;;2.08;;
69087;SDS011;56190;43.562;5.036;2023-04-24T00:49:57;4.63;;;2.10;;
69087;SDS011;56190;43.562;5.036;2023-04-24T00:52:22;2.80;;;2.08;;
69087;SDS011;56190;43.562;5.036;2023-04-24T00:54:49;3.08;;;2.17;;
69087;SDS011;56190;43.562;5.036;2023-04-24T00:57:14;3.63;;;2.38;;
69087;SDS011;56190;43.562;5.036;2023-04-24T00:59:40;4.80;;;2.10;;
69087;SDS011;56190;43.562;5.036;2023-04-24T01:02:06;5.00;;;1.90;;
69087;SDS011;56190;43.562;5.036;2023-04-24T01:04:32;4.03;;;2.17;;
69087;SDS011;56190;43.562;5.036;2023-04-24T01:06:57;3.10;;;2.25;;
69087;SDS011;56190;43.562;5.036;2023-04-24T01:09:23;4.03;;;2.40;;
69087;SDS011;56190;43.562;5.036;2023-04-24T01:11:48;3.58;;;2.40;;
69087;SDS011;56190;43.562;5.036;2023-04-24T01:14:14;5.60;;;2.80;;
69087;SDS011;56190;43.562;5.036;2023-04-24T01:16:39;3.30;;;2.25;;
69087;SDS011;56190;43.562;5.036;2023-04-24T01:19:06;2.88;;;2.15;;
69087;SDS011;56190;43.562;5.036;2023-04-24T01:21:33;2.97;;;2.17;;
69087;SDS011;56190;43.562;5.036;2023-04-24T01:23:59;3.75;;;2.38;;
69087;SDS011;56190;43.562;5.036;2023-04-24T01:26:24;2.92;;;2.10;;
69087;SDS011;56190;43.562;5.036;2023-04-24T01:28:50;3.80;;;2.00;;
69087;SDS011;56190;43.562;5.036;2023-04-24T01:31:16;3.38;;;2.00;;
69087;SDS011;56190;43.562;5.036;2023-04-24T01:33:41;3.55;;;2.00;;
69087;SDS011;56190;43.562;5.036;2023-04-24T01:36:07;3.03;;;2.22;;
69087;SDS011;56190;43.562;5.036;2023-04-24T01:38:34;2.70;;;2.00;;
69087;SDS011;56190;43.562;5.036;2023-04-24T01:41:00;3.08;;;2.10;;
69087;SDS011;56190;43.562;5.036;2023-04-24T01:43:25;4.10;;;2.13;;
69087;SDS011;56190;43.562;5.036;2023-04-24T01:45:51;2.75;;;2.10;;
69087;SDS011;56190;43.562;5.036;2023-04-24T01:48:16;2.83;;;2.00;;
69087;SDS011;56190;43.562;5.036;2023-04-24T01:50:42;3.03;;;2.10;;
69087;SDS011;56190;43.562;5.036;2023-04-24T01:53:07;3.67;;;2.33;;
69087;SDS011;56190;43.562;5.036;2023-04-24T01:55:33;3.15;;;2.05;;
69087;SDS011;56190;43.562;5.036;2023-04-24T01:57:58;2.85;;;2.28;;
69087;SDS011;56190;43.562;5.036;2023-04-24T02:00:24;4.65;;;2.38;;
69087;SDS011;56190;43.562;5.036;2023-04-24T02:02:49;4.05;;;2.58;;
69087;SDS011;56190;43.562;5.036;2023-04-24T02:05:15;3.63;;;2.47;;
69087;SDS011;56190;43.562;5.036;2023-04-24T02:07:40;4.65;;;2.40;;
69087;SDS011;56190;43.562;5.036;2023-04-24T02:10:06;4.25;;;2.50;;
69087;SDS011;56190;43.562;5.036;2023-04-24T02:12:32;4.05;;;2.83;;
69087;SDS011;56190;43.562;5.036;2023-04-24T02:14:57;3.38;;;2.50;;
69087;SDS011;56190;43.562;5.036;2023-04-24T02:17:22;5.88;;;3.30;;
69087;SDS011;56190;43.562;5.036;2023-04-24T02:19:48;3.88;;;2.45;;
69087;SDS011;56190;43.562;5.036;2023-04-24T02:22:13;3.70;;;2.60;;
69087;SDS011;56190;43.562;5.036;2023-04-24T02:24:39;5.85;;;2.72;;
69087;SDS011;56190;43.562;5.036;2023-04-24T02:27:05;5.00;;;2.90;;
69087;SDS011;56190;43.562;5.036;2023-04-24T02:29:30;5.00;;;2.65;;
69087;SDS011;56190;43.562;5.036;2023-04-24T02:31:56;3.50;;;2.67;;
69087;SDS011;56190;43.562;5.036;2023-04-24T02:34:21;2.75;;;2.22;;
69087;SDS011;56190;43.562;5.036;2023-04-24T02:36:48;3.42;;;2.67;;
69087;SDS011;56190;43.562;5.036;2023-04-24T02:39:14;4.13;;;2.38;;
69087;SDS011;56190;43.562;5.036;2023-04-24T02:41:42;3.42;;;2.67;;
69087;SDS011;56190;43.562;5.036;2023-04-24T02:44:08;3.75;;;2.20;;
69087;SDS011;56190;43.562;5.036;2023-04-24T02:46:35;3.38;;;2.20;;
69087;SDS011;56190;43.562;5.036;2023-04-24T02:49:00;4.32;;;2.42;;
69087;SDS011;56190;43.562;5.036;2023-04-24T02:51:25;2.97;;;2.10;;
69087;SDS011;56190;43.562;5.036;2023-04-24T02:53:52;3.58;;;2.15;;
69087;SDS011;56190;43.562;5.036;2023-04-24T02:56:17;3.67;;;1.98;;
69087;SDS011;56190;43.562;5.036;2023-04-24T02:58:43;5.72;;;2.50;;
69087;SDS011;56190;43.562;5.036;2023-04-24T03:01:10;4.25;;;2.35;;
69087;SDS011;56190;43.562;5.036;2023-04-24T03:03:36;4.10;;;2.10;;
69087;SDS011;56190;43.562;5.036;2023-04-24T03:06:01;3.17;;;2.03;;
69087;SDS011;56190;43.562;5.036;2023-04-24T03:08:28;4.60;;;2.45;;
69087;SDS011;56190;43.562;5.036;2023-04-24T03:10:54;5.47;;;2.40;;
69087;SDS011;56190;43.562;5.036;2023-04-24T03:13:19;3.60;;;2.63;;
69087;SDS011;56190;43.562;5.036;2023-04-24T03:15:44;3.00;;;2.30;;
69087;SDS011;56190;43.562;5.036;2023-04-24T03:18:12;3.53;;;2.22;;
69087;SDS011;56190;43.562;5.036;2023-04-24T03:20:37;3.33;;;2.40;;
69087;SDS011;56190;43.562;5.036;2023-04-24T03:23:02;3.30;;;2.13;;
69087;SDS011;56190;43.562;5.036;2023-04-24T03:25:28;3.75;;;2.38;;
69087;SDS011;56190;43.562;5.036;2023-04-24T03:27:53;5.32;;;2.55;;
69087;SDS011;56190;43.562;5.036;2023-04-24T03:30:19;4.80;;;2.40;;
69087;SDS011;56190;43.562;5.036;2023-04-24T03:32:45;4.72;;;2.88;;
69087;SDS011;56190;43.562;5.036;2023-04-24T03:35:11;4.65;;;2.30;;
69087;SDS011;56190;43.562;5.036;2023-04-24T03:37:36;3.95;;;2.65;;
69087;SDS011;56190;43.562;5.036;2023-04-24T03:40:01;4.10;;;2.17;;
69087;SDS011;56190;43.562;5.036;2023-04-24T03:42:27;4.55;;;2.25;;
69087;SDS011;56190;43.562;5.036;2023-04-24T03:44:52;3.22;;;2.22;;
69087;SDS011;56190;43.562;5.036;2023-04-24T03:47:18;3.85;;;2.38;;
69087;SDS011;56190;43.562;5.036;2023-04-24T03:49:43;4.97;;;2.35;;
69087;SDS011;56190;43.562;5.036;2023-04-24T03:52:10;4.68;;;2.45;;
69087;SDS011;56190;43.562;5.036;2023-04-24T03:54:36;4.07;;;2.55;;
69087;SDS011;56190;43.562;5.036;2023-04-24T03:57:01;3.15;;;2.15;;
69087;SDS011;56190;43.562;5.036;2023-04-24T03:59:26;3.83;;;2.25;;
69087;SDS011;56190;43.562;5.036;2023-04-24T04:01:52;4.75;;;2.50;;
69087;SDS011;56190;43.562;5.036;2023-04-24T04:04:17;3.40;;;2.45;;
69087;SDS011;56190;43.562;5.036;2023-04-24T04:06:42;3.60;;;2.40;;
69087;SDS011;56190;43.562;5.036;2023-04-24T04:09:09;3.60;;;2.50;;
69087;SDS011;56190;43.562;5.036;2023-04-24T04:11:34;4.47;;;2.92;;
69087;SDS011;56190;43.562;5.036;2023-04-24T04:14:01;3.50;;;2.50;;
69087;SDS011;56190;43.562;5.036;2023-04-24T04:16:26;4.53;;;2.55;;
69087;SDS011;56190;43.562;5.036;2023-04-24T04:18:52;4.97;;;2.97;;
69087;SDS011;56190;43.562;5.036;2023-04-24T04:21:17;4.25;;;2.60;;
69087;SDS011;56190;43.562;5.036;2023-04-24T04:23:43;5.80;;;2.70;;
69087;SDS011;56190;43.562;5.036;2023-04-24T04:26:08;6.13;;;2.80;;
69087;SDS011;56190;43.562;5.036;2023-04-24T04:28:36;3.95;;;2.70;;
69087;SDS011;56190;43.562;5.036;2023-04-24T04:31:02;4.88;;;2.70;;
69087;SDS011;56190;43.562;5.036;2023-04-24T04:33:28;4.43;;;2.13;;
69087;SDS011;56190;43.562;5.036;2023-04-24T04:35:53;3.65;;;2.60;;
69087;SDS011;56190;43.562;5.036;2023-04-24T04:38:19;5.55;;;2.80;;
69087;SDS011;56190;43.562;5.036;2023-04-24T04:40:44;2.97;;;2.38;;
69087;SDS011;56190;43.562;5.036;2023-04-24T04:43:10;3.50;;;2.75;;
69087;SDS011;56190;43.562;5.036;2023-04-24T04:45:36;3.80;;;2.75;;
69087;SDS011;56190;43.562;5.036;2023-04-24T04:48:02;2.78;;;2.20;;
69087;SDS011;56190;43.562;5.036;2023-04-24T04:50:28;4.63;;;2.30;;
69087;SDS011;56190;43.562;5.036;2023-04-24T04:52:53;6.97;;;2.78;;
69087;SDS011;56190;43.562;5.036;2023-04-24T04:55:19;5.97;;;3.10;;
69087;SDS011;56190;43.562;5.036;2023-04-24T04:57:45;4.45;;;2.15;;
69087;SDS011;56190;43.562;5.036;2023-04-24T05:00:10;3.35;;;2.17;;
69087;SDS011;56190;43.562;5.036;2023-04-24T05:02:37;5.80;;;2.17;;
69087;SDS011;56190;43.562;5.036;2023-04-24T05:05:02;5.63;;;2.08;;
69087;SDS011;56190;43.562;5.036;2023-04-24T05:07:28;5.68;;;2.33;;
69087;SDS011;56190;43.562;5.036;2023-04-24T05:09:53;2.97;;;1.85;;
69087;SDS011;56190;43.562;5.036;2023-04-24T05:12:18;4.95;;;2.25;;
69087;SDS011;56190;43.562;5.036;2023-04-24T05:14:44;6.38;;;2.03;;
69087;SDS011;56190;43.562;5.036;2023-04-24T05:17:09;5.65;;;1.85;;
69087;SDS011;56190;43.562;5.036;2023-04-24T05:19:34;8.55;;;2.28;;
69087;SDS011;56190;43.562;5.036;2023-04-24T05:22:02;6.30;;;2.40;;
69087;SDS011;56190;43.562;5.036;2023-04-24T05:24:29;6.32;;;2.10;;
69087;SDS011;56190;43.562;5.036;2023-04-24T05:26:54;7.43;;;2.45;;
69087;SDS011;56190;43.562;5.036;2023-04-24T05:29:20;7.03;;;2.10;;
69087;SDS011;56190;43.562;5.036;2023-04-24T05:31:46;7.28;;;2.05;;
69087;SDS011;56190;43.562;5.036;2023-04-24T05:34:11;8.68;;;2.55;;
69087;SDS011;56190;43.562;5.036;2023-04-24T05:36:36;7.10;;;2.20;;
69087;SDS011;56190;43.562;5.036;2023-04-24T05:39:02;6.80;;;2.03;;
69087;SDS011;56190;43.562;5.036;2023-04-24T05:41:30;6.00;;;1.98;;
69087;SDS011;56190;43.562;5.036;2023-04-24T05:43:55;6.90;;;2.13;;
69087;SDS011;56190;43.562;5.036;2023-04-24T05:46:20;4.78;;;2.17;;
69087;SDS011;56190;43.562;5.036;2023-04-24T05:48:46;5.93;;;2.08;;
69087;SDS011;56190;43.562;5.036;2023-04-24T05:51:11;6.97;;;2.33;;
69087;SDS011;56190;43.562;5.036;2023-04-24T05:53:37;9.20;;;2.20;;
69087;SDS011;56190;43.562;5.036;2023-04-24T05:56:02;6.55;;;2.00;;
69087;SDS011;56190;43.562;5.036;2023-04-24T05:58:28;9.23;;;2.22;;
69087;SDS011;56190;43.562;5.036;2023-04-24T06:00:53;8.98;;;1.92;;
69087;SDS011;56190;43.562;5.036;2023-04-24T06:03:18;4.78;;;1.90;;
69087;SDS011;56190;43.562;5.036;2023-04-24T06:05:46;7.82;;;1.98;;
69087;SDS011;56190;43.562;5.036;2023-04-24T06:08:11;5.32;;;2.03;;
69087;SDS011;56190;43.562;5.036;2023-04-24T06:10:37;8.52;;;2.55;;
69087;SDS011;56190;43.562;5.036;2023-04-24T06:13:02;7.78;;;2.20;;
69087;SDS011;56190;43.562;5.036;2023-04-24T06:15:28;7.55;;;2.08;;
69087;SDS011;56190;43.562;5.036;2023-04-24T06:17:54;8.30;;;1.75;;
69087;SDS011;56190;43.562;5.036;2023-04-24T06:20:19;8.13;;;2.40;;
69087;SDS011;56190;43.562;5.036;2023-04-24T06:22:45;9.27;;;1.98;;
69087;SDS011;56190;43.562;5.036;2023-04-24T06:25:10;7.18;;;2.05;;
69087;SDS011;56190;43.562;5.036;2023-04-24T06:27:36;6.53;;;1.60;;
69087;SDS011;56190;43.562;5.036;2023-04-24T06:30:02;5.25;;;1.63;;
69087;SDS011;56190;43.562;5.036;2023-04-24T06:32:27;5.78;;;1.70;;
69087;SDS011;56190;43.562;5.036;2023-04-24T06:34:53;4.70;;;1.65;;
69087;SDS011;56190;43.562;5.036;2023-04-24T06:37:18;4.80;;;1.50;;
69087;SDS011;56190;43.562;5.036;2023-04-24T06:39:44;8.10;;;1.95;;
69087;SDS011;56190;43.562;5.036;2023-04-24T06:42:09;6.45;;;1.40;;
69087;SDS011;56190;43.562;5.036;2023-04-24T06:44:35;7.13;;;2.47;;
69087;SDS011;56190;43.562;5.036;2023-04-24T06:47:05;7.38;;;2.10;;
69087;SDS011;56190;43.562;5.036;2023-04-24T06:49:31;7.82;;;1.73;;
69087;SDS011;56190;43.562;5.036;2023-04-24T06:51:56;7.50;;;2.50;;
69087;SDS011;56190;43.562;5.036;2023-04-24T06:54:21;7.10;;;1.73;;
69087;SDS011;56190;43.562;5.036;2023-04-24T06:56:47;5.72;;;1.80;;
69087;SDS011;56190;43.562;5.036;2023-04-24T06:59:13;3.88;;;1.25;;
69087;SDS011;56190;43.562;5.036;2023-04-24T07:01:38;7.45;;;2.08;;
69087;SDS011;56190;43.562;5.036;2023-04-24T07:04:04;7.78;;;1.58;;
69087;SDS011;56190;43.562;5.036;2023-04-24T07:06:29;11.65;;;2.53;;
69087;SDS011;56190;43.562;5.036;2023-04-24T07:08:56;4.90;;;1.50;;
69087;SDS011;56190;43.562;5.036;2023-04-24T07:11:21;5.75;;;1.77;;
69087;SDS011;56190;43.562;5.036;2023-04-24T07:13:47;5.13;;;1.92;;
69087;SDS011;56190;43.562;5.036;2023-04-24T07:16:12;5.75;;;1.42;;
69087;SDS011;56190;43.562;5.036;2023-04-24T07:18:38;5.10;;;1.58;;
69087;SDS011;56190;43.562;5.036;2023-04-24T07:21:04;5.53;;;1.60;;
69087;SDS011;56190;43.562;5.036;2023-04-24T07:23:29;8.75;;;1.77;;
69087;SDS011;56190;43.562;5.036;2023-04-24T07:25:55;5.43;;;1.70;;
69087;SDS011;56190;43.562;5.036;2023-04-24T07:28:21;8.65;;;1.80;;
69087;SDS011;56190;43.562;5.036;2023-04-24T07:30:46;4.53;;;1.73;;
69087;SDS011;56190;43.562;5.036;2023-04-24T07:33:11;4.18;;;1.45;;
69087;SDS011;56190;43.562;5.036;2023-04-24T07:35:38;4.13;;;1.45;;
69087;SDS011;56190;43.562;5.036;2023-04-24T07:38:03;4.82;;;1.98;;
69087;SDS011;56190;43.562;5.036;2023-04-24T07:40:28;7.35;;;1.77;;
69087;SDS011;56190;43.562;5.036;2023-04-24T07:42:53;6.28;;;1.50;;
69087;SDS011;56190;43.562;5.036;2023-04-24T07:45:19;7.57;;;2.05;;
69087;SDS011;56190;43.562;5.036;2023-04-24T07:47:44;6.13;;;1.98;;
69087;SDS011;56190;43.562;5.036;2023-04-24T07:50:11;5.20;;;1.55;;
69087;SDS011;56190;43.562;5.036;2023-04-24T07:52:36;4.20;;;1.65;;
69087;SDS011;56190;43.562;5.036;2023-04-24T07:55:02;10.27;;;2.20;;
69087;SDS011;56190;43.562;5.036;2023-04-24T07:57:27;6.63;;;1.52;;
69087;SDS011;56190;43.562;5.036;2023-04-24T07:59:53;6.60;;;1.60;;
69087;SDS011;56190;43.562;5.036;2023-04-24T08:02:18;4.95;;;1.60;;
69087;SDS011;56190;43.562;5.036;2023-04-24T08:04:43;5.57;;;1.10;;
69087;SDS011;56190;43.562;5.036;2023-04-24T08:07:08;6.60;;;1.23;;
69087;SDS011;56190;43.562;5.036;2023-04-24T08:09:34;4.00;;;1.20;;
69087;SDS011;56190;43.562;5.036;2023-04-24T08:11:59;7.38;;;1.45;;
69087;SDS011;56190;43.562;5.036;2023-04-24T08:14:24;7.20;;;1.70;;
69087;SDS011;56190;43.562;5.036;2023-04-24T08:16:50;5.93;;;1.42;;
69087;SDS011;56190;43.562;5.036;2023-04-24T08:19:15;5.32;;;1.42;;
69087;SDS011;56190;43.562;5.036;2023-04-24T08:21:40;5.55;;;1.42;;
69087;SDS011;56190;43.562;5.036;2023-04-24T08:24:05;5.32;;;1.50;;
69087;SDS011;56190;43.562;5.036;2023-04-24T08:26:32;7.63;;;1.50;;
69087;SDS011;56190;43.562;5.036;2023-04-24T08:28:58;4.88;;;1.52;;
69087;SDS011;56190;43.562;5.036;2023-04-24T08:31:23;4.03;;;1.38;;
69087;SDS011;56190;43.562;5.036;2023-04-24T08:33:50;5.70;;;1.42;;
69087;SDS011;56190;43.562;5.036;2023-04-24T08:36:15;4.18;;;1.40;;
69087;SDS011;56190;43.562;5.036;2023-04-24T08:38:40;5.85;;;1.67;;
69087;SDS011;56190;43.562;5.036;2023-04-24T08:41:06;5.55;;;1.73;;
69087;SDS011;56190;43.562;5.036;2023-04-24T08:43:32;4.68;;;1.80;;
69087;SDS011;56190;43.562;5.036;2023-04-24T08:45:58;4.32;;;1.40;;
69087;SDS011;56190;43.562;5.036;2023-04-24T08:48:24;4.10;;;1.33;;
69087;SDS011;56190;43.562;5.036;2023-04-24T08:50:50;7.15;;;1.77;;
69087;SDS011;56190;43.562;5.036;2023-04-24T08:53:15;3.90;;;1.50;;
69087;SDS011;56190;43.562;5.036;2023-04-24T08:55:41;3.70;;;1.40;;
69087;SDS011;56190;43.562;5.036;2023-04-24T08:58:06;5.35;;;1.63;;
69087;SDS011;56190;43.562;5.036;2023-04-24T09:00:31;5.93;;;1.30;;
69087;SDS011;56190;43.562;5.036;2023-04-24T09:02:57;8.35;;;1.42;;
69087;SDS011;56190;43.562;5.036;2023-04-24T09:05:22;4.60;;;1.20;;
69087;SDS011;56190;43.562;5.036;2023-04-24T09:07:55;4.25;;;1.25;;
69087;SDS011;56190;43.562;5.036;2023-04-24T09:12:47;2.88;;;1.15;;
69087;SDS011;56190;43.562;5.036;2023-04-24T09:15:12;5.82;;;1.55;;
69087;SDS011;56190;43.562;5.036;2023-04-24T09:17:38;3.95;;;1.52;;
69087;SDS011;56190;43.562;5.036;2023-04-24T09:20:03;4.28;;;1.20;;
69087;SDS011;56190;43.562;5.036;2023-04-24T09:22:30;3.35;;;1.20;;
69087;SDS011;56190;43.562;5.036;2023-04-24T09:25:02;4.95;;;1.55;;
69087;SDS011;56190;43.562;5.036;2023-04-24T09:27:28;4.80;;;1.40;;
69087;SDS011;56190;43.562;5.036;2023-04-24T09:29:54;3.80;;;1.48;;
69087;SDS011;56190;43.562;5.036;2023-04-24T09:32:22;3.58;;;1.30;;
69087;SDS011;56190;43.562;5.036;2023-04-24T09:35:04;3.83;;;1.15;;
69087;SDS011;56190;43.562;5.036;2023-04-24T09:37:29;3.10;;;1.00;;
69087;SDS011;56190;43.562;5.036;2023-04-24T09:42:39;3.35;;;1.20;;
69087;SDS011;56190;43.562;5.036;2023-04-24T09:45:08;2.75;;;0.85;;
69087;SDS011;56190;43.562;5.036;2023-04-24T09:47:37;2.58;;;0.88;;
69087;SDS011;56190;43.562;5.036;2023-04-24T09:50:12;3.03;;;0.98;;
69087;SDS011;56190;43.562;5.036;2023-04-24T09:52:45;1.48;;;0.70;;
69087;SDS011;56190;43.562;5.036;2023-04-24T09:55:12;1.83;;;0.90;;
69087;SDS011;56190;43.562;5.036;2023-04-24T09:57:46;1.83;;;0.70;;
69087;SDS011;56190;43.562;5.036;2023-04-24T10:00:12;1.40;;;0.70;;
69087;SDS011;56190;43.562;5.036;2023-04-24T10:02:38;2.03;;;0.70;;
69087;SDS011;56190;43.562;5.036;2023-04-24T10:05:03;5.18;;;1.05;;
69087;SDS011;56190;43.562;5.036;2023-04-24T10:07:29;2.92;;;0.60;;
69087;SDS011;56190;43.562;5.036;2023-04-24T10:09:57;2.45;;;0.68;;
69087;SDS011;56190;43.562;5.036;2023-04-24T10:12:23;5.00;;;0.70;;
69087;SDS011;56190;43.562;5.036;2023-04-24T10:14:49;3.55;;;0.80;;
69087;SDS011;56190;43.562;5.036;2023-04-24T10:17:15;1.63;;;0.60;;
69087;SDS011;56190;43.562;5.036;2023-04-24T10:19:41;3.53;;;0.80;;
69087;SDS011;56190;43.562;5.036;2023-04-24T10:22:07;2.58;;;0.82;;
69087;SDS011;56190;43.562;5.036;2023-04-24T10:24:33;3.53;;;1.10;;
69087;SDS011;56190;43.562;5.036;2023-04-24T10:26:58;5.03;;;0.90;;
69087;SDS011;56190;43.562;5.036;2023-04-24T10:29:24;2.58;;;0.93;;
69087;SDS011;56190;43.562;5.036;2023-04-24T10:31:50;1.52;;;0.65;;
69087;SDS011;56190;43.562;5.036;2023-04-24T10:34:16;2.83;;;0.80;;
69087;SDS011;56190;43.562;5.036;2023-04-24T10:36:43;2.72;;;0.63;;
69087;SDS011;56190;43.562;5.036;2023-04-24T10:39:11;3.20;;;0.80;;
69087;SDS011;56190;43.562;5.036;2023-04-24T10:41:37;3.60;;;0.93;;
69087;SDS011;56190;43.562;5.036;2023-04-24T10:44:10;2.55;;;0.52;;
69087;SDS011;56190;43.562;5.036;2023-04-24T10:46:36;2.97;;;0.98;;
69087;SDS011;56190;43.562;5.036;2023-04-24T10:49:05;2.05;;;0.60;;
69087;SDS011;56190;43.562;5.036;2023-04-24T10:51:49;0.88;;;0.50;;
69087;SDS011;56190;43.562;5.036;2023-04-24T10:54:22;1.17;;;0.35;;
69087;SDS011;56190;43.562;5.036;2023-04-24T10:56:47;1.00;;;0.30;;
69087;SDS011;56190;43.562;5.036;2023-04-24T10:59:13;1.90;;;0.60;;
69087;SDS011;56190;43.562;5.036;2023-04-24T11:01:52;0.63;;;0.30;;
69087;SDS011;56190;43.562;5.036;2023-04-24T11:04:22;1.10;;;0.40;;
69087;SDS011;56190;43.562;5.036;2023-04-24T11:06:53;1.27;;;0.50;;
69087;SDS011;56190;43.562;5.036;2023-04-24T11:09:19;0.43;;;0.20;;
69087;SDS011;56190;43.562;5.036;2023-04-24T11:11:46;1.15;;;0.50;;
69087;SDS011;56190;43.562;5.036;2023-04-24T11:14:14;1.27;;;0.50;;
69087;SDS011;56190;43.562;5.036;2023-04-24T11:26:48;0.70;;;0.32;;
69087;SDS011;56190;43.562;5.036;2023-04-24T11:29:14;0.93;;;0.90;;
69087;SDS011;56190;43.562;5.036;2023-04-24T11:31:43;1.10;;;0.40;;
69087;SDS011;56190;43.562;5.036;2023-04-24T11:34:13;0.50;;;0.38;;
69087;SDS011;56190;43.562;5.036;2023-04-24T11:36:39;0.85;;;0.50;;
69087;SDS011;56190;43.562;5.036;2023-04-24T11:39:05;1.55;;;0.30;;
69087;SDS011;56190;43.562;5.036;2023-04-24T11:41:31;1.48;;;0.38;;
69087;SDS011;56190;43.562;5.036;2023-04-24T11:43:57;1.77;;;0.57;;
69087;SDS011;56190;43.562;5.036;2023-04-24T11:46:26;1.08;;;0.47;;
69087;SDS011;56190;43.562;5.036;2023-04-24T11:48:51;1.10;;;0.38;;
69087;SDS011;56190;43.562;5.036;2023-04-24T11:51:16;2.60;;;0.40;;
69087;SDS011;56190;43.562;5.036;2023-04-24T11:53:41;1.33;;;0.40;;
69087;SDS011;56190;43.562;5.036;2023-04-24T11:56:08;1.73;;;0.52;;
69087;SDS011;56190;43.562;5.036;2023-04-24T11:58:37;1.58;;;0.40;;
69087;SDS011;56190;43.562;5.036;2023-04-24T12:01:04;3.17;;;0.50;;
69087;SDS011;56190;43.562;5.036;2023-04-24T12:03:30;1.40;;;0.40;;
69087;SDS011;56190;43.562;5.036;2023-04-24T12:06:05;1.70;;;0.40;;
69087;SDS011;56190;43.562;5.036;2023-04-24T12:08:33;0.80;;;0.30;;
69087;SDS011;56190;43.562;5.036;2023-04-24T12:10:59;2.08;;;0.47;;
69087;SDS011;56190;43.562;5.036;2023-04-24T12:13:25;1.55;;;0.43;;
69087;SDS011;56190;43.562;5.036;2023-04-24T12:15:50;0.40;;;0.40;;
69087;SDS011;56190;43.562;5.036;2023-04-24T12:18:15;1.63;;;0.47;;
69087;SDS011;56190;43.562;5.036;2023-04-24T12:20:43;1.00;;;0.30;;
69087;SDS011;56190;43.562;5.036;2023-04-24T12:23:08;0.80;;;0.43;;
69087;SDS011;56190;43.562;5.036;2023-04-24T12:25:34;2.35;;;0.70;;
69087;SDS011;56190;43.562;5.036;2023-04-24T12:30:27;0.75;;;0.40;;
69087;SDS011;56190;43.562;5.036;2023-04-24T12:32:53;0.60;;;0.40;;
69087;SDS011;56190;43.562;5.036;2023-04-24T12:35:21;2.10;;;0.50;;
69087;SDS011;56190;43.562;5.036;2023-04-24T12:37:46;0.77;;;0.50;;
69087;SDS011;56190;43.562;5.036;2023-04-24T12:40:13;0.43;;;0.40;;
69087;SDS011;56190;43.562;5.036;2023-04-24T12:42:45;2.05;;;0.50;;
69087;SDS011;56190;43.562;5.036;2023-04-24T12:45:10;1.15;;;0.45;;
69087;SDS011;56190;43.562;5.036;2023-04-24T12:47:37;0.70;;;0.40;;
69087;SDS011;56190;43.562;5.036;2023-04-24T12:50:02;0.90;;;0.40;;
69087;SDS011;56190;43.562;5.036;2023-04-24T12:52:28;1.55;;;0.50;;
69087;SDS011;56190;43.562;5.036;2023-04-24T12:54:54;2.45;;;0.50;;
69087;SDS011;56190;43.562;5.036;2023-04-24T12:57:20;0.88;;;0.40;;
69087;SDS011;56190;43.562;5.036;2023-04-24T12:59:46;0.60;;;0.40;;
69087;SDS011;56190;43.562;5.036;2023-04-24T13:02:11;3.65;;;0.70;;
69087;SDS011;56190;43.562;5.036;2023-04-24T13:04:36;1.85;;;0.40;;
69087;SDS011;56190;43.562;5.036;2023-04-24T13:07:02;1.90;;;0.50;;
69087;SDS011;56190;43.562;5.036;2023-04-24T13:09:27;1.65;;;0.40;;
69087;SDS011;56190;43.562;5.036;2023-04-24T13:11:54;1.42;;;0.70;;
69087;SDS011;56190;43.562;5.036;2023-04-24T13:14:20;1.02;;;0.60;;
69087;SDS011;56190;43.562;5.036;2023-04-24T13:16:45;2.83;;;0.55;;
69087;SDS011;56190;43.562;5.036;2023-04-24T13:19:11;1.15;;;0.40;;
69087;SDS011;56190;43.562;5.036;2023-04-24T13:21:36;1.27;;;0.50;;
69087;SDS011;56190;43.562;5.036;2023-04-24T13:24:03;2.50;;;0.50;;
69087;SDS011;56190;43.562;5.036;2023-04-24T13:26:29;1.02;;;0.40;;
69087;SDS011;56190;43.562;5.036;2023-04-24T13:28:55;2.33;;;0.60;;
69087;SDS011;56190;43.562;5.036;2023-04-24T13:31:20;1.20;;;0.60;;
69087;SDS011;56190;43.562;5.036;2023-04-24T13:33:47;1.08;;;0.40;;
69087;SDS011;56190;43.562;5.036;2023-04-24T13:36:13;1.40;;;0.60;;
69087;SDS011;56190;43.562;5.036;2023-04-24T13:38:38;3.47;;;0.40;;
69087;SDS011;56190;43.562;5.036;2023-04-24T13:41:03;1.88;;;0.60;;
69087;SDS011;56190;43.562;5.036;2023-04-24T13:43:29;1.25;;;0.50;;
69087;SDS011;56190;43.562;5.036;2023-04-24T13:45:55;1.45;;;0.50;;
69087;SDS011;56190;43.562;5.036;2023-04-24T13:48:20;0.63;;;0.60;;
69087;SDS011;56190;43.562;5.036;2023-04-24T13:50:45;1.55;;;0.50;;
69087;SDS011;56190;43.562;5.036;2023-04-24T13:53:13;1.17;;;0.55;;
69087;SDS011;56190;43.562;5.036;2023-04-24T13:55:38;1.40;;;0.77;;
69087;SDS011;56190;43.562;5.036;2023-04-24T13:58:04;3.97;;;0.60;;
69087;SDS011;56190;43.562;5.036;2023-04-24T14:00:29;1.00;;;0.60;;
69087;SDS011;56190;43.562;5.036;2023-04-24T14:02:56;2.03;;;0.60;;
69087;SDS011;56190;43.562;5.036;2023-04-24T14:05:21;1.55;;;0.68;;
69087;SDS011;56190;43.562;5.036;2023-04-24T14:07:47;3.97;;;0.63;;
69087;SDS011;56190;43.562;5.036;2023-04-24T14:10:12;1.80;;;0.60;;
69087;SDS011;56190;43.562;5.036;2023-04-24T14:12:37;1.35;;;0.55;;
69087;SDS011;56190;43.562;5.036;2023-04-24T14:15:03;0.98;;;0.43;;
69087;SDS011;56190;43.562;5.036;2023-04-24T14:17:29;2.00;;;0.45;;
69087;SDS011;56190;43.562;5.036;2023-04-24T14:19:55;1.77;;;0.50;;
69087;SDS011;56190;43.562;5.036;2023-04-24T14:22:21;2.22;;;0.60;;
69087;SDS011;56190;43.562;5.036;2023-04-24T14:24:46;1.08;;;0.80;;
69087;SDS011;56190;43.562;5.036;2023-04-24T14:27:12;2.92;;;0.32;;
69087;SDS011;56190;43.562;5.036;2023-04-24T14:29:38;1.70;;;0.80;;
69087;SDS011;56190;43.562;5.036;2023-04-24T14:32:04;1.15;;;0.45;;
69087;SDS011;56190;43.562;5.036;2023-04-24T14:34:29;1.27;;;0.60;;
69087;SDS011;56190;43.562;5.036;2023-04-24T14:36:54;1.58;;;0.55;;
69087;SDS011;56190;43.562;5.036;2023-04-24T14:39:20;2.15;;;0.73;;
69087;SDS011;56190;43.562;5.036;2023-04-24T14:41:45;0.70;;;0.60;;
69087;SDS011;56190;43.562;5.036;2023-04-24T14:44:10;1.38;;;0.65;;
69087;SDS011;56190;43.562;5.036;2023-04-24T14:46:36;1.52;;;0.65;;
69087;SDS011;56190;43.562;5.036;2023-04-24T14:49:02;1.58;;;0.70;;
69087;SDS011;56190;43.562;5.036;2023-04-24T14:51:27;4.72;;;1.00;;
69087;SDS011;56190;43.562;5.036;2023-04-24T14:53:53;4.20;;;0.70;;
69087;SDS011;56190;43.562;5.036;2023-04-24T14:56:18;3.45;;;0.60;;
69087;SDS011;56190;43.562;5.036;2023-04-24T14:58:43;1.70;;;0.70;;